sensor_id;sensor_type;location;lat;lon;timestamp;P1;durP1;ratioP1;P2;durP2;ratioP2
67193;SDS011;54121;53.508;49.422;2023-03-09T00:01:11;16.60;;;9.98;;
67193;SDS011;54121;53.508;49.422;2023-03-09T00:03:42;17.35;;;10.63;;
67193;SDS011;54121;53.508;49.422;2023-03-09T00:06:09;18.42;;;12.90;;
67193;SDS011;54121;53.508;49.422;2023-03-09T00:08:36;16.40;;;12.18;;
67193;SDS011;54121;53.508;49.422;2023-03-09T00:11:06;15.60;;;10.70;;
67193;SDS011;54121;53.508;49.422;2023-03-09T00:13:33;13.50;;;8.68;;
67193;SDS011;54121;53.508;49.422;2023-03-09T00:16:07;13.27;;;11.07;;
67193;SDS011;54121;53.508;49.422;2023-03-09T00:18:38;13.90;;;9.30;;
67193;SDS011;54121;53.508;49.422;2023-03-09T00:21:05;14.63;;;8.93;;
67193;SDS011;54121;53.508;49.422;2023-03-09T00:23:32;14.20;;;9.73;;
67193;SDS011;54121;53.508;49.422;2023-03-09T00:26:05;11.40;;;8.00;;
67193;SDS011;54121;53.508;49.422;2023-03-09T00:28:32;13.55;;;9.38;;
67193;SDS011;54121;53.508;49.422;2023-03-09T00:31:03;9.77;;;7.10;;
67193;SDS011;54121;53.508;49.422;2023-03-09T00:33:32;12.27;;;9.23;;
67193;SDS011;54121;53.508;49.422;2023-03-09T00:35:58;14.85;;;9.65;;
67193;SDS011;54121;53.508;49.422;2023-03-09T00:38:25;11.07;;;8.50;;
67193;SDS011;54121;53.508;49.422;2023-03-09T00:40:52;11.15;;;9.00;;
67193;SDS011;54121;53.508;49.422;2023-03-09T00:43:18;11.05;;;7.50;;
67193;SDS011;54121;53.508;49.422;2023-03-09T00:45:45;14.13;;;8.65;;
67193;SDS011;54121;53.508;49.422;2023-03-09T00:48:12;8.35;;;6.40;;
67193;SDS011;54121;53.508;49.422;2023-03-09T00:50:38;12.52;;;7.78;;
67193;SDS011;54121;53.508;49.422;2023-03-09T00:53:05;6.80;;;5.13;;
67193;SDS011;54121;53.508;49.422;2023-03-09T00:55:32;10.23;;;7.38;;
67193;SDS011;54121;53.508;49.422;2023-03-09T00:57:58;7.60;;;5.70;;
67193;SDS011;54121;53.508;49.422;2023-03-09T01:00:25;7.82;;;6.55;;
67193;SDS011;54121;53.508;49.422;2023-03-09T01:02:52;9.93;;;6.22;;
67193;SDS011;54121;53.508;49.422;2023-03-09T01:05:19;8.73;;;6.05;;
67193;SDS011;54121;53.508;49.422;2023-03-09T01:07:46;8.73;;;6.85;;
67193;SDS011;54121;53.508;49.422;2023-03-09T01:10:12;10.45;;;6.95;;
67193;SDS011;54121;53.508;49.422;2023-03-09T01:12:39;8.98;;;5.88;;
67193;SDS011;54121;53.508;49.422;2023-03-09T01:15:05;8.98;;;6.85;;
67193;SDS011;54121;53.508;49.422;2023-03-09T01:17:32;7.22;;;5.00;;
67193;SDS011;54121;53.508;49.422;2023-03-09T01:19:59;9.65;;;7.35;;
67193;SDS011;54121;53.508;49.422;2023-03-09T01:22:25;10.02;;;6.53;;
67193;SDS011;54121;53.508;49.422;2023-03-09T01:24:52;10.70;;;7.65;;
67193;SDS011;54121;53.508;49.422;2023-03-09T01:27:18;10.07;;;4.35;;
67193;SDS011;54121;53.508;49.422;2023-03-09T01:29:45;8.25;;;5.78;;
67193;SDS011;54121;53.508;49.422;2023-03-09T01:32:11;9.65;;;5.07;;
67193;SDS011;54121;53.508;49.422;2023-03-09T01:34:38;7.90;;;5.45;;
67193;SDS011;54121;53.508;49.422;2023-03-09T01:37:04;11.27;;;5.70;;
67193;SDS011;54121;53.508;49.422;2023-03-09T01:39:31;8.65;;;6.30;;
67193;SDS011;54121;53.508;49.422;2023-03-09T01:41:57;7.97;;;5.30;;
67193;SDS011;54121;53.508;49.422;2023-03-09T01:44:24;8.30;;;5.75;;
67193;SDS011;54121;53.508;49.422;2023-03-09T01:46:54;8.70;;;3.70;;
67193;SDS011;54121;53.508;49.422;2023-03-09T01:54:51;7.80;;;6.65;;
67193;SDS011;54121;53.508;49.422;2023-03-09T01:57:31;10.27;;;5.43;;
67193;SDS011;54121;53.508;49.422;2023-03-09T02:00:09;11.25;;;6.97;;
67193;SDS011;54121;53.508;49.422;2023-03-09T02:02:43;7.53;;;5.60;;
67193;SDS011;54121;53.508;49.422;2023-03-09T02:05:14;9.05;;;7.40;;
67193;SDS011;54121;53.508;49.422;2023-03-09T02:07:54;8.43;;;5.80;;
67193;SDS011;54121;53.508;49.422;2023-03-09T02:10:27;16.20;;;8.50;;
67193;SDS011;54121;53.508;49.422;2023-03-09T02:13:00;5.20;;;3.70;;
67193;SDS011;54121;53.508;49.422;2023-03-09T02:15:30;11.93;;;5.85;;
67193;SDS011;54121;53.508;49.422;2023-03-09T02:17:56;14.23;;;8.90;;
67193;SDS011;54121;53.508;49.422;2023-03-09T02:22:54;10.27;;;8.02;;
67193;SDS011;54121;53.508;49.422;2023-03-09T02:25:38;12.88;;;7.75;;
67193;SDS011;54121;53.508;49.422;2023-03-09T02:28:12;11.77;;;8.68;;
67193;SDS011;54121;53.508;49.422;2023-03-09T02:30:39;11.18;;;7.53;;
67193;SDS011;54121;53.508;49.422;2023-03-09T02:33:09;13.18;;;9.65;;
67193;SDS011;54121;53.508;49.422;2023-03-09T02:35:37;15.55;;;7.78;;
67193;SDS011;54121;53.508;49.422;2023-03-09T02:38:09;11.40;;;7.70;;
67193;SDS011;54121;53.508;49.422;2023-03-09T02:40:37;8.88;;;6.20;;
67193;SDS011;54121;53.508;49.422;2023-03-09T02:43:04;14.20;;;8.05;;
67193;SDS011;54121;53.508;49.422;2023-03-09T02:45:32;10.60;;;5.80;;
67193;SDS011;54121;53.508;49.422;2023-03-09T02:47:59;12.40;;;7.22;;
67193;SDS011;54121;53.508;49.422;2023-03-09T02:50:26;15.77;;;11.20;;
67193;SDS011;54121;53.508;49.422;2023-03-09T02:52:53;14.05;;;9.82;;
67193;SDS011;54121;53.508;49.422;2023-03-09T02:55:20;12.32;;;7.40;;
67193;SDS011;54121;53.508;49.422;2023-03-09T02:57:47;7.38;;;3.75;;
67193;SDS011;54121;53.508;49.422;2023-03-09T03:00:14;14.15;;;9.43;;
67193;SDS011;54121;53.508;49.422;2023-03-09T03:02:42;13.20;;;8.00;;
67193;SDS011;54121;53.508;49.422;2023-03-09T03:05:09;11.43;;;7.75;;
67193;SDS011;54121;53.508;49.422;2023-03-09T03:07:36;8.30;;;5.63;;
67193;SDS011;54121;53.508;49.422;2023-03-09T03:10:03;8.80;;;5.63;;
67193;SDS011;54121;53.508;49.422;2023-03-09T03:12:30;18.00;;;9.57;;
67193;SDS011;54121;53.508;49.422;2023-03-09T03:14:57;13.52;;;7.80;;
67193;SDS011;54121;53.508;49.422;2023-03-09T03:17:24;19.63;;;11.45;;
67193;SDS011;54121;53.508;49.422;2023-03-09T03:19:51;12.30;;;8.35;;
67193;SDS011;54121;53.508;49.422;2023-03-09T03:22:19;16.27;;;10.90;;
67193;SDS011;54121;53.508;49.422;2023-03-09T03:24:46;15.35;;;11.25;;
67193;SDS011;54121;53.508;49.422;2023-03-09T03:27:13;15.40;;;8.27;;
67193;SDS011;54121;53.508;49.422;2023-03-09T03:29:40;8.65;;;4.75;;
67193;SDS011;54121;53.508;49.422;2023-03-09T03:32:07;17.08;;;9.15;;
67193;SDS011;54121;53.508;49.422;2023-03-09T03:34:34;13.50;;;9.82;;
67193;SDS011;54121;53.508;49.422;2023-03-09T03:37:01;16.77;;;11.77;;
67193;SDS011;54121;53.508;49.422;2023-03-09T03:39:28;7.60;;;5.05;;
67193;SDS011;54121;53.508;49.422;2023-03-09T03:41:55;18.52;;;8.65;;
67193;SDS011;54121;53.508;49.422;2023-03-09T03:44:22;10.00;;;7.10;;
67193;SDS011;54121;53.508;49.422;2023-03-09T03:46:49;15.40;;;11.15;;
67193;SDS011;54121;53.508;49.422;2023-03-09T03:49:16;19.92;;;10.18;;
67193;SDS011;54121;53.508;49.422;2023-03-09T03:51:42;15.00;;;10.30;;
67193;SDS011;54121;53.508;49.422;2023-03-09T03:54:09;15.43;;;12.35;;
67193;SDS011;54121;53.508;49.422;2023-03-09T03:56:35;17.60;;;12.15;;
67193;SDS011;54121;53.508;49.422;2023-03-09T03:59:02;14.82;;;9.93;;
67193;SDS011;54121;53.508;49.422;2023-03-09T04:01:30;16.38;;;12.05;;
67193;SDS011;54121;53.508;49.422;2023-03-09T04:03:56;15.57;;;10.27;;
67193;SDS011;54121;53.508;49.422;2023-03-09T04:06:23;18.30;;;11.20;;
67193;SDS011;54121;53.508;49.422;2023-03-09T04:08:49;16.83;;;11.00;;
67193;SDS011;54121;53.508;49.422;2023-03-09T04:11:16;14.80;;;10.82;;
67193;SDS011;54121;53.508;49.422;2023-03-09T04:13:45;21.48;;;12.40;;
67193;SDS011;54121;53.508;49.422;2023-03-09T04:16:13;15.52;;;9.45;;
67193;SDS011;54121;53.508;49.422;2023-03-09T04:18:40;16.13;;;10.82;;
67193;SDS011;54121;53.508;49.422;2023-03-09T04:21:08;15.38;;;11.77;;
67193;SDS011;54121;53.508;49.422;2023-03-09T04:23:35;18.10;;;12.48;;
67193;SDS011;54121;53.508;49.422;2023-03-09T04:26:02;14.15;;;10.40;;
67193;SDS011;54121;53.508;49.422;2023-03-09T04:28:31;15.82;;;10.30;;
67193;SDS011;54121;53.508;49.422;2023-03-09T04:30:58;20.10;;;10.88;;
67193;SDS011;54121;53.508;49.422;2023-03-09T04:33:24;17.38;;;11.70;;
67193;SDS011;54121;53.508;49.422;2023-03-09T04:35:51;16.75;;;9.05;;
67193;SDS011;54121;53.508;49.422;2023-03-09T04:38:18;14.55;;;9.05;;
67193;SDS011;54121;53.508;49.422;2023-03-09T04:40:45;18.17;;;12.07;;
67193;SDS011;54121;53.508;49.422;2023-03-09T04:43:11;15.70;;;9.18;;
67193;SDS011;54121;53.508;49.422;2023-03-09T04:45:38;14.18;;;8.82;;
67193;SDS011;54121;53.508;49.422;2023-03-09T04:48:05;17.23;;;8.32;;
67193;SDS011;54121;53.508;49.422;2023-03-09T04:50:32;16.42;;;11.77;;
67193;SDS011;54121;53.508;49.422;2023-03-09T04:52:59;15.50;;;9.88;;
67193;SDS011;54121;53.508;49.422;2023-03-09T04:55:26;17.73;;;11.70;;
67193;SDS011;54121;53.508;49.422;2023-03-09T04:57:53;19.70;;;12.40;;
67193;SDS011;54121;53.508;49.422;2023-03-09T05:00:23;14.35;;;9.73;;
67193;SDS011;54121;53.508;49.422;2023-03-09T05:02:51;18.92;;;11.75;;
67193;SDS011;54121;53.508;49.422;2023-03-09T05:05:17;14.05;;;9.90;;
67193;SDS011;54121;53.508;49.422;2023-03-09T05:07:45;18.00;;;9.85;;
67193;SDS011;54121;53.508;49.422;2023-03-09T05:10:12;13.75;;;9.65;;
67193;SDS011;54121;53.508;49.422;2023-03-09T05:12:39;16.30;;;11.07;;
67193;SDS011;54121;53.508;49.422;2023-03-09T05:15:06;20.85;;;12.80;;
67193;SDS011;54121;53.508;49.422;2023-03-09T05:17:33;16.92;;;10.75;;
67193;SDS011;54121;53.508;49.422;2023-03-09T05:20:01;17.70;;;12.90;;
67193;SDS011;54121;53.508;49.422;2023-03-09T05:22:33;16.20;;;11.35;;
67193;SDS011;54121;53.508;49.422;2023-03-09T05:25:00;18.45;;;12.82;;
67193;SDS011;54121;53.508;49.422;2023-03-09T05:27:27;17.55;;;12.35;;
67193;SDS011;54121;53.508;49.422;2023-03-09T05:29:54;17.95;;;11.73;;
67193;SDS011;54121;53.508;49.422;2023-03-09T05:32:21;18.67;;;14.15;;
67193;SDS011;54121;53.508;49.422;2023-03-09T05:34:48;18.25;;;13.60;;
67193;SDS011;54121;53.508;49.422;2023-03-09T05:37:14;14.85;;;9.98;;
67193;SDS011;54121;53.508;49.422;2023-03-09T05:39:41;20.98;;;15.32;;
67193;SDS011;54121;53.508;49.422;2023-03-09T05:42:08;17.45;;;12.13;;
67193;SDS011;54121;53.508;49.422;2023-03-09T05:44:36;17.67;;;13.55;;
67193;SDS011;54121;53.508;49.422;2023-03-09T05:47:03;16.70;;;12.82;;
67193;SDS011;54121;53.508;49.422;2023-03-09T05:49:30;16.90;;;10.70;;
67193;SDS011;54121;53.508;49.422;2023-03-09T05:51:57;23.00;;;13.27;;
67193;SDS011;54121;53.508;49.422;2023-03-09T05:54:25;19.73;;;12.90;;
67193;SDS011;54121;53.508;49.422;2023-03-09T05:56:53;21.67;;;13.27;;
67193;SDS011;54121;53.508;49.422;2023-03-09T05:59:23;16.65;;;11.38;;
67193;SDS011;54121;53.508;49.422;2023-03-09T06:01:49;18.67;;;14.45;;
67193;SDS011;54121;53.508;49.422;2023-03-09T06:04:16;17.48;;;13.13;;
67193;SDS011;54121;53.508;49.422;2023-03-09T06:06:43;15.55;;;11.27;;
67193;SDS011;54121;53.508;49.422;2023-03-09T06:09:10;18.58;;;13.88;;
67193;SDS011;54121;53.508;49.422;2023-03-09T06:11:37;18.40;;;12.65;;
67193;SDS011;54121;53.508;49.422;2023-03-09T06:14:04;19.45;;;13.82;;
67193;SDS011;54121;53.508;49.422;2023-03-09T06:16:31;20.33;;;12.35;;
67193;SDS011;54121;53.508;49.422;2023-03-09T06:18:57;16.63;;;13.35;;
67193;SDS011;54121;53.508;49.422;2023-03-09T06:21:24;17.83;;;12.05;;
67193;SDS011;54121;53.508;49.422;2023-03-09T06:23:52;16.40;;;11.18;;
67193;SDS011;54121;53.508;49.422;2023-03-09T06:26:20;19.02;;;11.82;;
67193;SDS011;54121;53.508;49.422;2023-03-09T06:28:48;20.60;;;12.75;;
67193;SDS011;54121;53.508;49.422;2023-03-09T06:31:15;17.60;;;12.32;;
67193;SDS011;54121;53.508;49.422;2023-03-09T06:33:44;18.77;;;10.65;;
67193;SDS011;54121;53.508;49.422;2023-03-09T06:36:13;15.80;;;8.65;;
67193;SDS011;54121;53.508;49.422;2023-03-09T06:38:41;13.15;;;10.52;;
67193;SDS011;54121;53.508;49.422;2023-03-09T06:41:08;14.82;;;11.77;;
67193;SDS011;54121;53.508;49.422;2023-03-09T06:43:35;15.95;;;10.68;;
67193;SDS011;54121;53.508;49.422;2023-03-09T06:46:02;16.75;;;10.52;;
67193;SDS011;54121;53.508;49.422;2023-03-09T06:48:29;17.70;;;10.35;;
67193;SDS011;54121;53.508;49.422;2023-03-09T06:50:56;20.42;;;12.65;;
67193;SDS011;54121;53.508;49.422;2023-03-09T06:53:23;14.55;;;9.27;;
67193;SDS011;54121;53.508;49.422;2023-03-09T06:55:49;17.45;;;11.52;;
67193;SDS011;54121;53.508;49.422;2023-03-09T06:58:17;16.00;;;9.88;;
67193;SDS011;54121;53.508;49.422;2023-03-09T07:00:44;15.52;;;10.65;;
67193;SDS011;54121;53.508;49.422;2023-03-09T07:03:14;19.17;;;12.63;;
67193;SDS011;54121;53.508;49.422;2023-03-09T07:05:43;15.02;;;11.60;;
67193;SDS011;54121;53.508;49.422;2023-03-09T07:08:11;15.57;;;11.30;;
67193;SDS011;54121;53.508;49.422;2023-03-09T07:10:38;13.93;;;10.60;;
67193;SDS011;54121;53.508;49.422;2023-03-09T07:13:04;19.52;;;13.27;;
67193;SDS011;54121;53.508;49.422;2023-03-09T07:15:31;20.02;;;11.02;;
67193;SDS011;54121;53.508;49.422;2023-03-09T07:17:58;14.40;;;9.18;;
67193;SDS011;54121;53.508;49.422;2023-03-09T07:20:25;20.98;;;11.10;;
67193;SDS011;54121;53.508;49.422;2023-03-09T07:22:52;18.05;;;11.75;;
67193;SDS011;54121;53.508;49.422;2023-03-09T07:25:18;14.63;;;10.13;;
67193;SDS011;54121;53.508;49.422;2023-03-09T07:27:47;18.90;;;12.23;;
67193;SDS011;54121;53.508;49.422;2023-03-09T07:30:15;17.70;;;12.45;;
67193;SDS011;54121;53.508;49.422;2023-03-09T07:32:42;17.40;;;10.88;;
67193;SDS011;54121;53.508;49.422;2023-03-09T07:35:09;17.75;;;10.20;;
67193;SDS011;54121;53.508;49.422;2023-03-09T07:37:36;17.95;;;12.40;;
67193;SDS011;54121;53.508;49.422;2023-03-09T07:40:03;13.48;;;7.97;;
67193;SDS011;54121;53.508;49.422;2023-03-09T07:42:30;18.13;;;12.95;;
67193;SDS011;54121;53.508;49.422;2023-03-09T07:44:57;16.60;;;10.65;;
67193;SDS011;54121;53.508;49.422;2023-03-09T07:47:24;13.57;;;10.70;;
67193;SDS011;54121;53.508;49.422;2023-03-09T07:49:51;19.13;;;12.25;;
67193;SDS011;54121;53.508;49.422;2023-03-09T07:52:17;13.88;;;9.32;;
67193;SDS011;54121;53.508;49.422;2023-03-09T07:54:44;20.33;;;13.68;;
67193;SDS011;54121;53.508;49.422;2023-03-09T07:57:10;17.80;;;14.68;;
67193;SDS011;54121;53.508;49.422;2023-03-09T07:59:37;18.23;;;14.38;;
67193;SDS011;54121;53.508;49.422;2023-03-09T08:02:04;20.33;;;15.73;;
67193;SDS011;54121;53.508;49.422;2023-03-09T08:04:32;17.17;;;14.82;;
67193;SDS011;54121;53.508;49.422;2023-03-09T08:06:59;20.70;;;12.38;;
67193;SDS011;54121;53.508;49.422;2023-03-09T08:09:25;10.80;;;8.57;;
67193;SDS011;54121;53.508;49.422;2023-03-09T08:11:53;18.55;;;14.20;;
67193;SDS011;54121;53.508;49.422;2023-03-09T08:14:20;20.55;;;15.13;;
67193;SDS011;54121;53.508;49.422;2023-03-09T08:16:46;14.77;;;11.02;;
67193;SDS011;54121;53.508;49.422;2023-03-09T08:19:13;18.67;;;15.23;;
67193;SDS011;54121;53.508;49.422;2023-03-09T08:21:45;15.48;;;12.48;;
67193;SDS011;54121;53.508;49.422;2023-03-09T08:24:12;18.35;;;14.18;;
67193;SDS011;54121;53.508;49.422;2023-03-09T08:26:40;18.38;;;13.25;;
67193;SDS011;54121;53.508;49.422;2023-03-09T08:29:08;14.77;;;10.65;;
67193;SDS011;54121;53.508;49.422;2023-03-09T08:31:35;17.05;;;14.38;;
67193;SDS011;54121;53.508;49.422;2023-03-09T08:34:03;17.05;;;12.73;;
67193;SDS011;54121;53.508;49.422;2023-03-09T08:36:34;14.27;;;10.45;;
67193;SDS011;54121;53.508;49.422;2023-03-09T08:39:04;10.68;;;7.90;;
67193;SDS011;54121;53.508;49.422;2023-03-09T08:41:30;14.98;;;10.70;;
67193;SDS011;54121;53.508;49.422;2023-03-09T08:43:57;15.10;;;12.43;;
67193;SDS011;54121;53.508;49.422;2023-03-09T08:46:26;17.98;;;10.43;;
67193;SDS011;54121;53.508;49.422;2023-03-09T08:48:53;12.68;;;11.00;;
67193;SDS011;54121;53.508;49.422;2023-03-09T08:51:22;16.80;;;11.43;;
67193;SDS011;54121;53.508;49.422;2023-03-09T08:53:49;20.70;;;15.90;;
67193;SDS011;54121;53.508;49.422;2023-03-09T08:56:16;23.30;;;15.07;;
67193;SDS011;54121;53.508;49.422;2023-03-09T08:58:44;17.20;;;11.77;;
67193;SDS011;54121;53.508;49.422;2023-03-09T09:01:13;14.00;;;10.30;;
67193;SDS011;54121;53.508;49.422;2023-03-09T09:03:39;17.50;;;14.85;;
67193;SDS011;54121;53.508;49.422;2023-03-09T09:06:08;23.67;;;16.23;;
67193;SDS011;54121;53.508;49.422;2023-03-09T09:08:37;20.27;;;17.17;;
67193;SDS011;54121;53.508;49.422;2023-03-09T09:11:06;20.58;;;15.00;;
67193;SDS011;54121;53.508;49.422;2023-03-09T09:13:34;16.38;;;12.88;;
67193;SDS011;54121;53.508;49.422;2023-03-09T09:16:01;16.40;;;11.70;;
67193;SDS011;54121;53.508;49.422;2023-03-09T09:18:28;17.42;;;12.27;;
67193;SDS011;54121;53.508;49.422;2023-03-09T09:20:54;12.20;;;9.45;;
67193;SDS011;54121;53.508;49.422;2023-03-09T09:23:21;16.90;;;13.57;;
67193;SDS011;54121;53.508;49.422;2023-03-09T09:25:53;13.13;;;11.45;;
67193;SDS011;54121;53.508;49.422;2023-03-09T09:28:22;13.38;;;11.77;;
67193;SDS011;54121;53.508;49.422;2023-03-09T09:30:53;18.33;;;12.48;;
67193;SDS011;54121;53.508;49.422;2023-03-09T09:33:30;14.82;;;11.65;;
67193;SDS011;54121;53.508;49.422;2023-03-09T09:36:06;13.88;;;9.82;;
67193;SDS011;54121;53.508;49.422;2023-03-09T09:38:38;12.32;;;9.23;;
67193;SDS011;54121;53.508;49.422;2023-03-09T09:41:09;15.88;;;11.27;;
67193;SDS011;54121;53.508;49.422;2023-03-09T09:43:56;11.55;;;9.50;;
67193;SDS011;54121;53.508;49.422;2023-03-09T09:46:30;14.07;;;11.30;;
67193;SDS011;54121;53.508;49.422;2023-03-09T09:48:57;16.95;;;13.68;;
67193;SDS011;54121;53.508;49.422;2023-03-09T09:54:12;18.88;;;14.00;;
67193;SDS011;54121;53.508;49.422;2023-03-09T09:57:04;13.98;;;9.57;;
67193;SDS011;54121;53.508;49.422;2023-03-09T10:05:00;17.42;;;14.52;;
67193;SDS011;54121;53.508;49.422;2023-03-09T10:07:37;15.80;;;12.43;;
67193;SDS011;54121;53.508;49.422;2023-03-09T10:10:06;15.32;;;12.07;;
67193;SDS011;54121;53.508;49.422;2023-03-09T10:12:42;18.40;;;13.95;;
67193;SDS011;54121;53.508;49.422;2023-03-09T10:15:29;17.10;;;14.93;;
67193;SDS011;54121;53.508;49.422;2023-03-09T10:18:31;14.32;;;12.70;;
67193;SDS011;54121;53.508;49.422;2023-03-09T10:20:56;16.08;;;13.77;;
67193;SDS011;54121;53.508;49.422;2023-03-09T10:23:24;15.60;;;11.75;;
67193;SDS011;54121;53.508;49.422;2023-03-09T10:32:12;18.25;;;15.07;;
67193;SDS011;54121;53.508;49.422;2023-03-09T10:34:56;19.93;;;14.53;;
67193;SDS011;54121;53.508;49.422;2023-03-09T10:37:35;19.15;;;13.60;;
67193;SDS011;54121;53.508;49.422;2023-03-09T10:40:02;17.77;;;14.55;;
67193;SDS011;54121;53.508;49.422;2023-03-09T10:42:34;19.27;;;15.45;;
67193;SDS011;54121;53.508;49.422;2023-03-09T10:45:15;13.82;;;9.32;;
67193;SDS011;54121;53.508;49.422;2023-03-09T10:47:57;23.27;;;16.35;;
67193;SDS011;54121;53.508;49.422;2023-03-09T10:50:34;17.95;;;13.55;;
67193;SDS011;54121;53.508;49.422;2023-03-09T10:55:56;17.98;;;15.13;;
67193;SDS011;54121;53.508;49.422;2023-03-09T10:58:37;22.35;;;18.15;;
67193;SDS011;54121;53.508;49.422;2023-03-09T11:01:05;18.67;;;16.65;;
67193;SDS011;54121;53.508;49.422;2023-03-09T11:03:43;20.92;;;16.80;;
67193;SDS011;54121;53.508;49.422;2023-03-09T11:08:44;23.23;;;19.27;;
67193;SDS011;54121;53.508;49.422;2023-03-09T11:11:32;19.58;;;17.45;;
67193;SDS011;54121;53.508;49.422;2023-03-09T11:14:01;20.98;;;13.68;;
67193;SDS011;54121;53.508;49.422;2023-03-09T11:16:29;18.05;;;13.60;;
67193;SDS011;54121;53.508;49.422;2023-03-09T11:19:05;15.32;;;10.25;;
67193;SDS011;54121;53.508;49.422;2023-03-09T11:21:36;17.45;;;13.90;;
67193;SDS011;54121;53.508;49.422;2023-03-09T11:24:06;18.73;;;15.45;;
67193;SDS011;54121;53.508;49.422;2023-03-09T11:26:37;16.75;;;14.95;;
67193;SDS011;54121;53.508;49.422;2023-03-09T11:32:01;13.88;;;12.40;;
67193;SDS011;54121;53.508;49.422;2023-03-09T11:34:32;13.40;;;11.57;;
67193;SDS011;54121;53.508;49.422;2023-03-09T11:37:09;11.25;;;8.20;;
67193;SDS011;54121;53.508;49.422;2023-03-09T11:43:04;13.52;;;10.85;;
67193;SDS011;54121;53.508;49.422;2023-03-09T11:45:16;14.30;;;12.23;;
67193;SDS011;54121;53.508;49.422;2023-03-09T11:47:49;15.63;;;14.07;;
67193;SDS011;54121;53.508;49.422;2023-03-09T11:50:34;14.68;;;13.18;;
67193;SDS011;54121;53.508;49.422;2023-03-09T11:53:13;15.27;;;13.65;;
67193;SDS011;54121;53.508;49.422;2023-03-09T11:55:49;13.40;;;10.52;;
67193;SDS011;54121;53.508;49.422;2023-03-09T11:58:25;14.77;;;12.57;;
67193;SDS011;54121;53.508;49.422;2023-03-09T12:01:04;13.63;;;10.30;;
67193;SDS011;54121;53.508;49.422;2023-03-09T12:03:44;13.85;;;10.98;;
67193;SDS011;54121;53.508;49.422;2023-03-09T12:06:35;15.38;;;13.77;;
67193;SDS011;54121;53.508;49.422;2023-03-09T12:09:17;14.02;;;11.82;;
67193;SDS011;54121;53.508;49.422;2023-03-09T12:12:00;14.23;;;12.10;;
67193;SDS011;54121;53.508;49.422;2023-03-09T12:14:44;15.55;;;13.95;;
67193;SDS011;54121;53.508;49.422;2023-03-09T12:17:18;13.38;;;11.82;;
67193;SDS011;54121;53.508;49.422;2023-03-09T12:19:50;14.73;;;12.25;;
67193;SDS011;54121;53.508;49.422;2023-03-09T12:22:21;10.43;;;9.02;;
67193;SDS011;54121;53.508;49.422;2023-03-09T12:25:00;15.13;;;13.52;;
67193;SDS011;54121;53.508;49.422;2023-03-09T12:27:33;14.45;;;11.25;;
67193;SDS011;54121;53.508;49.422;2023-03-09T12:30:08;13.63;;;9.60;;
67193;SDS011;54121;53.508;49.422;2023-03-09T12:32:45;15.40;;;12.07;;
67193;SDS011;54121;53.508;49.422;2023-03-09T12:35:58;15.65;;;11.80;;
67193;SDS011;54121;53.508;49.422;2023-03-09T12:38:21;15.23;;;10.52;;
67193;SDS011;54121;53.508;49.422;2023-03-09T12:40:52;19.00;;;13.45;;
67193;SDS011;54121;53.508;49.422;2023-03-09T12:45:50;11.90;;;9.35;;
67193;SDS011;54121;53.508;49.422;2023-03-09T12:48:34;15.65;;;13.30;;
67193;SDS011;54121;53.508;49.422;2023-03-09T12:51:08;14.52;;;12.23;;
67193;SDS011;54121;53.508;49.422;2023-03-09T12:53:59;17.95;;;16.05;;
67193;SDS011;54121;53.508;49.422;2023-03-09T12:56:47;17.85;;;13.48;;
67193;SDS011;54121;53.508;49.422;2023-03-09T12:59:15;18.15;;;15.90;;
67193;SDS011;54121;53.508;49.422;2023-03-09T13:01:47;20.30;;;17.10;;
67193;SDS011;54121;53.508;49.422;2023-03-09T13:04:18;21.58;;;17.23;;
67193;SDS011;54121;53.508;49.422;2023-03-09T13:06:52;19.17;;;14.93;;
67193;SDS011;54121;53.508;49.422;2023-03-09T13:09:25;22.08;;;16.80;;
67193;SDS011;54121;53.508;49.422;2023-03-09T13:16:58;14.53;;;9.93;;
67193;SDS011;54121;53.508;49.422;2023-03-09T13:19:40;17.38;;;13.75;;
67193;SDS011;54121;53.508;49.422;2023-03-09T13:22:16;13.73;;;9.63;;
67193;SDS011;54121;53.508;49.422;2023-03-09T13:24:45;19.65;;;14.05;;
67193;SDS011;54121;53.508;49.422;2023-03-09T13:35:36;17.48;;;14.18;;
67193;SDS011;54121;53.508;49.422;2023-03-09T13:38:43;6.75;;;4.70;;
67193;SDS011;54121;53.508;49.422;2023-03-09T13:41:02;10.82;;;9.55;;
67193;SDS011;54121;53.508;49.422;2023-03-09T13:43:32;16.75;;;9.52;;
67193;SDS011;54121;53.508;49.422;2023-03-09T13:48:34;12.77;;;9.25;;
67193;SDS011;54121;53.508;49.422;2023-03-09T13:57:25;13.15;;;9.82;;
67193;SDS011;54121;53.508;49.422;2023-03-09T14:00:10;10.88;;;7.30;;
67193;SDS011;54121;53.508;49.422;2023-03-09T14:02:43;11.15;;;8.93;;
67193;SDS011;54121;53.508;49.422;2023-03-09T14:07:42;10.98;;;8.32;;
67193;SDS011;54121;53.508;49.422;2023-03-09T14:12:46;13.05;;;10.63;;
67193;SDS011;54121;53.508;49.422;2023-03-09T14:15:28;14.30;;;10.90;;
67193;SDS011;54121;53.508;49.422;2023-03-09T14:17:56;13.27;;;10.90;;
67193;SDS011;54121;53.508;49.422;2023-03-09T14:20:33;13.48;;;11.00;;
67193;SDS011;54121;53.508;49.422;2023-03-09T14:23:14;18.63;;;11.68;;
67193;SDS011;54121;53.508;49.422;2023-03-09T14:26:03;13.32;;;10.32;;
67193;SDS011;54121;53.508;49.422;2023-03-09T14:28:40;17.80;;;13.15;;
67193;SDS011;54121;53.508;49.422;2023-03-09T14:31:22;16.00;;;11.02;;
67193;SDS011;54121;53.508;49.422;2023-03-09T14:34:00;17.42;;;12.68;;
67193;SDS011;54121;53.508;49.422;2023-03-09T14:36:38;17.43;;;12.53;;
67193;SDS011;54121;53.508;49.422;2023-03-09T14:39:35;15.38;;;10.57;;
67193;SDS011;54121;53.508;49.422;2023-03-09T14:42:15;19.92;;;10.63;;
67193;SDS011;54121;53.508;49.422;2023-03-09T14:47:47;19.27;;;12.70;;
67193;SDS011;54121;53.508;49.422;2023-03-09T14:50:22;20.80;;;14.57;;
67193;SDS011;54121;53.508;49.422;2023-03-09T14:52:50;26.08;;;17.98;;
67193;SDS011;54121;53.508;49.422;2023-03-09T14:55:20;29.63;;;21.52;;
67193;SDS011;54121;53.508;49.422;2023-03-09T14:57:48;26.95;;;18.10;;
67193;SDS011;54121;53.508;49.422;2023-03-09T15:00:19;27.45;;;20.33;;
67193;SDS011;54121;53.508;49.422;2023-03-09T15:02:47;29.65;;;17.58;;
67193;SDS011;54121;53.508;49.422;2023-03-09T15:05:16;30.75;;;21.40;;
67193;SDS011;54121;53.508;49.422;2023-03-09T15:07:45;29.60;;;20.98;;
67193;SDS011;54121;53.508;49.422;2023-03-09T15:10:19;28.42;;;19.58;;
67193;SDS011;54121;53.508;49.422;2023-03-09T15:12:47;25.10;;;16.83;;
67193;SDS011;54121;53.508;49.422;2023-03-09T15:17:48;26.35;;;16.30;;
67193;SDS011;54121;53.508;49.422;2023-03-09T15:20:19;40.95;;;25.08;;
67193;SDS011;54121;53.508;49.422;2023-03-09T15:22:47;28.13;;;16.00;;
67193;SDS011;54121;53.508;49.422;2023-03-09T15:25:16;23.67;;;14.48;;
67193;SDS011;54121;53.508;49.422;2023-03-09T15:27:44;33.08;;;21.40;;
67193;SDS011;54121;53.508;49.422;2023-03-09T15:30:14;30.88;;;18.33;;
67193;SDS011;54121;53.508;49.422;2023-03-09T15:32:42;26.17;;;13.88;;
67193;SDS011;54121;53.508;49.422;2023-03-09T15:35:11;29.17;;;19.38;;
67193;SDS011;54121;53.508;49.422;2023-03-09T15:37:41;29.52;;;18.90;;
67193;SDS011;54121;53.508;49.422;2023-03-09T15:40:09;27.65;;;17.90;;